<?xml version="1.0" encoding="UTF-8" standalone="no" ?>
<gpx xmlns="http://www.topografix.com/GPX/1/1" xmlns:xsi="http://www.w3.org/2001/XMLSchema-instance" xsi:schemaLocation="http://www.topografix.com/GPX/1/1 http://www.topografix.com/GPX/1/1/gpx.xsd" version="1.1" creator="VisuGPX - https://www.visugpx.com">
  <metadata>
    <name>Monnieres_MoulinsSevre_12-21km</name>
    <desc><![CDATA[gnerando idor:6642363_14359385]]></desc>
  </metadata>
  <trk>
    <name><![CDATA[Monnières_MoulinsSèvre_20.8km-14359385]]></name>
    <extensions>
      <line xmlns="http://www.topografix.com/GPX/gpx_style/0/2">
        <color>400040</color>
        <width>4</width>
      </line>
    </extensions>
    <trkseg>
      <trkpt lat="47.13168" lon="-1.35451">
        <ele>32</ele>
        <time>2023-11-05T14:00:51Z</time>
      </trkpt>
      <trkpt lat="47.13194" lon="-1.35504">
        <ele>30</ele>
        <time>2023-11-05T14:01:50Z</time>
      </trkpt>
      <trkpt lat="47.13271" lon="-1.35418">
        <ele>28</ele>
        <time>2023-11-05T14:03:59Z</time>
      </trkpt>
      <trkpt lat="47.13338" lon="-1.35357">
        <ele>25</ele>
        <time>2023-11-05T14:05:45Z</time>
      </trkpt>
      <trkpt lat="47.13415" lon="-1.35336">
        <ele>22</ele>
        <time>2023-11-05T14:07:29Z</time>
      </trkpt>
      <trkpt lat="47.13444" lon="-1.35336">
        <ele>21</ele>
        <time>2023-11-05T14:08:08Z</time>
      </trkpt>
      <trkpt lat="47.13485" lon="-1.35339">
        <ele>19</ele>
        <time>2023-11-05T14:09:03Z</time>
      </trkpt>
      <trkpt lat="47.13509" lon="-1.35249">
        <ele>16</ele>
        <time>2023-11-05T14:10:30Z</time>
      </trkpt>
      <trkpt lat="47.13565" lon="-1.35225">
        <ele>17</ele>
        <time>2023-11-05T14:11:48Z</time>
      </trkpt>
      <trkpt lat="47.13622" lon="-1.3523">
        <ele>16</ele>
        <time>2023-11-05T14:13:04Z</time>
      </trkpt>
      <trkpt lat="47.13667" lon="-1.35242">
        <ele>14</ele>
        <time>2023-11-05T14:14:05Z</time>
      </trkpt>
      <trkpt lat="47.13704" lon="-1.35231">
        <ele>12</ele>
        <time>2023-11-05T14:14:56Z</time>
      </trkpt>
      <trkpt lat="47.13738" lon="-1.35194">
        <ele>11</ele>
        <time>2023-11-05T14:15:52Z</time>
      </trkpt>
      <trkpt lat="47.13781" lon="-1.35089">
        <ele>10</ele>
        <time>2023-11-05T14:17:43Z</time>
      </trkpt>
      <trkpt lat="47.13787" lon="-1.34993">
        <ele>11</ele>
        <time>2023-11-05T14:19:11Z</time>
      </trkpt>
      <trkpt lat="47.13785" lon="-1.34972">
        <ele>11</ele>
        <time>2023-11-05T14:19:30Z</time>
      </trkpt>
      <trkpt lat="47.13762" lon="-1.34888">
        <ele>14</ele>
        <time>2023-11-05T14:20:52Z</time>
      </trkpt>
      <trkpt lat="47.1375" lon="-1.34836">
        <ele>16</ele>
        <time>2023-11-05T14:21:42Z</time>
      </trkpt>
      <trkpt lat="47.13736" lon="-1.3468">
        <ele>14</ele>
        <time>2023-11-05T14:24:05Z</time>
      </trkpt>
      <trkpt lat="47.13747" lon="-1.34596">
        <ele>11</ele>
        <time>2023-11-05T14:25:23Z</time>
      </trkpt>
      <trkpt lat="47.13728" lon="-1.34548">
        <ele>13</ele>
        <time>2023-11-05T14:26:13Z</time>
      </trkpt>
      <trkpt lat="47.13689" lon="-1.34549">
        <ele>17</ele>
        <time>2023-11-05T14:27:05Z</time>
      </trkpt>
      <trkpt lat="47.13643" lon="-1.34581">
        <ele>21</ele>
        <time>2023-11-05T14:28:13Z</time>
      </trkpt>
      <trkpt lat="47.13643" lon="-1.34642">
        <ele>23</ele>
        <time>2023-11-05T14:29:08Z</time>
      </trkpt>
      <trkpt lat="47.13641" lon="-1.34732">
        <ele>26</ele>
        <time>2023-11-05T14:30:30Z</time>
      </trkpt>
      <trkpt lat="47.1363" lon="-1.34795">
        <ele>27</ele>
        <time>2023-11-05T14:31:29Z</time>
      </trkpt>
      <trkpt lat="47.13614" lon="-1.34829">
        <ele>28</ele>
        <time>2023-11-05T14:32:07Z</time>
      </trkpt>
      <trkpt lat="47.13549" lon="-1.34789">
        <ele>30</ele>
        <time>2023-11-05T14:33:41Z</time>
      </trkpt>
      <trkpt lat="47.13499" lon="-1.34747">
        <ele>33</ele>
        <time>2023-11-05T14:34:58Z</time>
      </trkpt>
      <trkpt lat="47.13442" lon="-1.3473">
        <ele>34</ele>
        <time>2023-11-05T14:36:15Z</time>
      </trkpt>
      <trkpt lat="47.13381" lon="-1.34727">
        <ele>35</ele>
        <time>2023-11-05T14:37:37Z</time>
      </trkpt>
      <trkpt lat="47.13332" lon="-1.34775">
        <ele>35</ele>
        <time>2023-11-05T14:38:55Z</time>
      </trkpt>
      <trkpt lat="47.13284" lon="-1.34781">
        <ele>35</ele>
        <time>2023-11-05T14:40:00Z</time>
      </trkpt>
      <trkpt lat="47.13109" lon="-1.34804">
        <ele>37</ele>
        <time>2023-11-05T14:43:54Z</time>
      </trkpt>
      <trkpt lat="47.13063" lon="-1.34808">
        <ele>38</ele>
        <time>2023-11-05T14:44:56Z</time>
      </trkpt>
      <trkpt lat="47.13015" lon="-1.3485">
        <ele>40</ele>
        <time>2023-11-05T14:46:10Z</time>
      </trkpt>
      <trkpt lat="47.12929" lon="-1.34915">
        <ele>41</ele>
        <time>2023-11-05T14:48:19Z</time>
      </trkpt>
      <trkpt lat="47.12888" lon="-1.34722">
        <ele>39</ele>
        <time>2023-11-05T14:51:23Z</time>
      </trkpt>
      <trkpt lat="47.12779" lon="-1.34514">
        <ele>34</ele>
        <time>2023-11-05T14:55:21Z</time>
      </trkpt>
      <trkpt lat="47.12785" lon="-1.34409">
        <ele>29</ele>
        <time>2023-11-05T14:56:57Z</time>
      </trkpt>
      <trkpt lat="47.12733" lon="-1.34309">
        <ele>25</ele>
        <time>2023-11-05T14:58:51Z</time>
      </trkpt>
      <trkpt lat="47.12729" lon="-1.34087">
        <ele>18</ele>
        <time>2023-11-05T15:02:13Z</time>
      </trkpt>
      <trkpt lat="47.12626" lon="-1.33581">
        <ele>24</ele>
        <time>2023-11-05T15:10:12Z</time>
      </trkpt>
      <trkpt lat="47.12618" lon="-1.33516">
        <ele>24</ele>
        <time>2023-11-05T15:11:12Z</time>
      </trkpt>
      <trkpt lat="47.1248" lon="-1.3334">
        <ele>31</ele>
        <time>2023-11-05T15:15:16Z</time>
      </trkpt>
      <trkpt lat="47.12332" lon="-1.33445">
        <ele>34</ele>
        <time>2023-11-05T15:18:55Z</time>
      </trkpt>
      <trkpt lat="47.12243" lon="-1.336">
        <ele>37</ele>
        <time>2023-11-05T15:21:59Z</time>
      </trkpt>
      <trkpt lat="47.1209" lon="-1.33752">
        <ele>39</ele>
        <time>2023-11-05T15:26:06Z</time>
      </trkpt>
      <trkpt lat="47.11961" lon="-1.33804">
        <ele>39</ele>
        <time>2023-11-05T15:29:04Z</time>
      </trkpt>
      <trkpt lat="47.11878" lon="-1.33872">
        <ele>40</ele>
        <time>2023-11-05T15:31:11Z</time>
      </trkpt>
      <trkpt lat="47.11888" lon="-1.33904">
        <ele>39</ele>
        <time>2023-11-05T15:31:43Z</time>
      </trkpt>
      <trkpt lat="47.11812" lon="-1.34098">
        <ele>38</ele>
        <time>2023-11-05T15:35:06Z</time>
      </trkpt>
      <trkpt lat="47.11812" lon="-1.34316">
        <ele>34</ele>
        <time>2023-11-05T15:38:24Z</time>
      </trkpt>
      <trkpt lat="47.11696" lon="-1.34572">
        <ele>39</ele>
        <time>2023-11-05T15:43:04Z</time>
      </trkpt>
      <trkpt lat="47.11761" lon="-1.34672">
        <ele>38</ele>
        <time>2023-11-05T15:45:09Z</time>
      </trkpt>
      <trkpt lat="47.11802" lon="-1.34753">
        <ele>37</ele>
        <time>2023-11-05T15:46:41Z</time>
      </trkpt>
      <trkpt lat="47.11872" lon="-1.34816">
        <ele>36</ele>
        <time>2023-11-05T15:48:31Z</time>
      </trkpt>
      <trkpt lat="47.11878" lon="-1.34889">
        <ele>38</ele>
        <time>2023-11-05T15:49:37Z</time>
      </trkpt>
      <trkpt lat="47.11914" lon="-1.34951">
        <ele>39</ele>
        <time>2023-11-05T15:50:51Z</time>
      </trkpt>
      <trkpt lat="47.1195" lon="-1.35066">
        <ele>40</ele>
        <time>2023-11-05T15:52:46Z</time>
      </trkpt>
      <trkpt lat="47.12015" lon="-1.35179">
        <ele>45</ele>
        <time>2023-11-05T15:55:01Z</time>
      </trkpt>
      <trkpt lat="47.11975" lon="-1.35256">
        <ele>46</ele>
        <time>2023-11-05T15:56:29Z</time>
      </trkpt>
      <trkpt lat="47.1205" lon="-1.35467">
        <ele>55</ele>
        <time>2023-11-05T16:00:05Z</time>
      </trkpt>
      <trkpt lat="47.11951" lon="-1.35538">
        <ele>54</ele>
        <time>2023-11-05T16:02:32Z</time>
      </trkpt>
      <trkpt lat="47.11817" lon="-1.35619">
        <ele>51</ele>
        <time>2023-11-05T16:05:45Z</time>
      </trkpt>
      <trkpt lat="47.11753" lon="-1.35633">
        <ele>50</ele>
        <time>2023-11-05T16:07:11Z</time>
      </trkpt>
      <trkpt lat="47.11728" lon="-1.35607">
        <ele>49</ele>
        <time>2023-11-05T16:07:52Z</time>
      </trkpt>
      <trkpt lat="47.11709" lon="-1.35582">
        <ele>48</ele>
        <time>2023-11-05T16:08:26Z</time>
      </trkpt>
      <trkpt lat="47.11695" lon="-1.35552">
        <ele>48</ele>
        <time>2023-11-05T16:08:59Z</time>
      </trkpt>
      <trkpt lat="47.11592" lon="-1.35562">
        <ele>48</ele>
        <time>2023-11-05T16:11:17Z</time>
      </trkpt>
      <trkpt lat="47.11516" lon="-1.35538">
        <ele>47</ele>
        <time>2023-11-05T16:13:01Z</time>
      </trkpt>
      <trkpt lat="47.11393" lon="-1.35442">
        <ele>47</ele>
        <time>2023-11-05T16:16:07Z</time>
      </trkpt>
      <trkpt lat="47.11371" lon="-1.35534">
        <ele>49</ele>
        <time>2023-11-05T16:17:35Z</time>
      </trkpt>
      <trkpt lat="47.11367" lon="-1.3556">
        <ele>49</ele>
        <time>2023-11-05T16:18:00Z</time>
      </trkpt>
      <trkpt lat="47.11358" lon="-1.35608">
        <ele>50</ele>
        <time>2023-11-05T16:18:45Z</time>
      </trkpt>
      <trkpt lat="47.1136" lon="-1.35654">
        <ele>51</ele>
        <time>2023-11-05T16:19:27Z</time>
      </trkpt>
      <trkpt lat="47.11353" lon="-1.35663">
        <ele>51</ele>
        <time>2023-11-05T16:19:39Z</time>
      </trkpt>
      <trkpt lat="47.11369" lon="-1.35655">
        <ele>51</ele>
        <time>2023-11-05T16:20:02Z</time>
      </trkpt>
      <trkpt lat="47.11403" lon="-1.3575">
        <ele>52</ele>
        <time>2023-11-05T16:21:39Z</time>
      </trkpt>
      <trkpt lat="47.11442" lon="-1.35891">
        <ele>49</ele>
        <time>2023-11-05T16:23:57Z</time>
      </trkpt>
      <trkpt lat="47.11472" lon="-1.35901">
        <ele>50</ele>
        <time>2023-11-05T16:24:38Z</time>
      </trkpt>
      <trkpt lat="47.11484" lon="-1.36001">
        <ele>52</ele>
        <time>2023-11-05T16:26:11Z</time>
      </trkpt>
      <trkpt lat="47.11499" lon="-1.36136">
        <ele>55</ele>
        <time>2023-11-05T16:28:15Z</time>
      </trkpt>
      <trkpt lat="47.11502" lon="-1.36218">
        <ele>56</ele>
        <time>2023-11-05T16:29:29Z</time>
      </trkpt>
      <trkpt lat="47.11546" lon="-1.362">
        <ele>56</ele>
        <time>2023-11-05T16:30:30Z</time>
      </trkpt>
      <trkpt lat="47.1158" lon="-1.3618">
        <ele>57</ele>
        <time>2023-11-05T16:31:19Z</time>
      </trkpt>
      <trkpt lat="47.11664" lon="-1.36129">
        <ele>57</ele>
        <time>2023-11-05T16:33:20Z</time>
      </trkpt>
      <trkpt lat="47.11729" lon="-1.36068">
        <ele>56</ele>
        <time>2023-11-05T16:35:03Z</time>
      </trkpt>
      <trkpt lat="47.11751" lon="-1.36054">
        <ele>55</ele>
        <time>2023-11-05T16:35:35Z</time>
      </trkpt>
      <trkpt lat="47.11796" lon="-1.36029">
        <ele>56</ele>
        <time>2023-11-05T16:36:40Z</time>
      </trkpt>
      <trkpt lat="47.11876" lon="-1.35985">
        <ele>55</ele>
        <time>2023-11-05T16:38:34Z</time>
      </trkpt>
      <trkpt lat="47.11894" lon="-1.35953">
        <ele>55</ele>
        <time>2023-11-05T16:39:11Z</time>
      </trkpt>
      <trkpt lat="47.11922" lon="-1.35971">
        <ele>54</ele>
        <time>2023-11-05T16:39:52Z</time>
      </trkpt>
      <trkpt lat="47.11968" lon="-1.35981">
        <ele>53</ele>
        <time>2023-11-05T16:40:54Z</time>
      </trkpt>
      <trkpt lat="47.12049" lon="-1.36034">
        <ele>54</ele>
        <time>2023-11-05T16:42:52Z</time>
      </trkpt>
      <trkpt lat="47.12101" lon="-1.36026">
        <ele>55</ele>
        <time>2023-11-05T16:44:02Z</time>
      </trkpt>
      <trkpt lat="47.12144" lon="-1.36015">
        <ele>54</ele>
        <time>2023-11-05T16:45:00Z</time>
      </trkpt>
      <trkpt lat="47.12207" lon="-1.35997">
        <ele>54</ele>
        <time>2023-11-05T16:46:26Z</time>
      </trkpt>
      <trkpt lat="47.12379" lon="-1.35941">
        <ele>47</ele>
        <time>2023-11-05T16:50:21Z</time>
      </trkpt>
      <trkpt lat="47.12459" lon="-1.35872">
        <ele>42</ele>
        <time>2023-11-05T16:52:25Z</time>
      </trkpt>
      <trkpt lat="47.12476" lon="-1.35947">
        <ele>43</ele>
        <time>2023-11-05T16:53:37Z</time>
      </trkpt>
      <trkpt lat="47.1248" lon="-1.36045">
        <ele>45</ele>
        <time>2023-11-05T16:55:06Z</time>
      </trkpt>
      <trkpt lat="47.12448" lon="-1.36081">
        <ele>47</ele>
        <time>2023-11-05T16:56:00Z</time>
      </trkpt>
      <trkpt lat="47.12459" lon="-1.36134">
        <ele>46</ele>
        <time>2023-11-05T16:56:50Z</time>
      </trkpt>
      <trkpt lat="47.12476" lon="-1.36137">
        <ele>46</ele>
        <time>2023-11-05T16:57:13Z</time>
      </trkpt>
      <trkpt lat="47.12518" lon="-1.36146">
        <ele>45</ele>
        <time>2023-11-05T16:58:09Z</time>
      </trkpt>
      <trkpt lat="47.12532" lon="-1.36149">
        <ele>45</ele>
        <time>2023-11-05T16:58:28Z</time>
      </trkpt>
      <trkpt lat="47.12546" lon="-1.36155">
        <ele>44</ele>
        <time>2023-11-05T16:58:48Z</time>
      </trkpt>
      <trkpt lat="47.12558" lon="-1.36162">
        <ele>44</ele>
        <time>2023-11-05T16:59:05Z</time>
      </trkpt>
      <trkpt lat="47.12664" lon="-1.36233">
        <ele>39</ele>
        <time>2023-11-05T17:01:40Z</time>
      </trkpt>
      <trkpt lat="47.12708" lon="-1.36313">
        <ele>39</ele>
        <time>2023-11-05T17:03:14Z</time>
      </trkpt>
      <trkpt lat="47.12744" lon="-1.36376">
        <ele>39</ele>
        <time>2023-11-05T17:04:29Z</time>
      </trkpt>
      <trkpt lat="47.12784" lon="-1.36386">
        <ele>38</ele>
        <time>2023-11-05T17:05:23Z</time>
      </trkpt>
      <trkpt lat="47.12822" lon="-1.36407">
        <ele>37</ele>
        <time>2023-11-05T17:06:17Z</time>
      </trkpt>
      <trkpt lat="47.12877" lon="-1.36421">
        <ele>37</ele>
        <time>2023-11-05T17:07:31Z</time>
      </trkpt>
      <trkpt lat="47.12906" lon="-1.36436">
        <ele>37</ele>
        <time>2023-11-05T17:08:12Z</time>
      </trkpt>
      <trkpt lat="47.12951" lon="-1.3644">
        <ele>36</ele>
        <time>2023-11-05T17:09:13Z</time>
      </trkpt>
      <trkpt lat="47.12976" lon="-1.36484">
        <ele>37</ele>
        <time>2023-11-05T17:10:05Z</time>
      </trkpt>
      <trkpt lat="47.12987" lon="-1.36537">
        <ele>38</ele>
        <time>2023-11-05T17:10:55Z</time>
      </trkpt>
      <trkpt lat="47.13026" lon="-1.36579">
        <ele>40</ele>
        <time>2023-11-05T17:11:59Z</time>
      </trkpt>
      <trkpt lat="47.13047" lon="-1.36626">
        <ele>39</ele>
        <time>2023-11-05T17:12:50Z</time>
      </trkpt>
      <trkpt lat="47.13082" lon="-1.36588">
        <ele>39</ele>
        <time>2023-11-05T17:13:49Z</time>
      </trkpt>
      <trkpt lat="47.13114" lon="-1.36567">
        <ele>39</ele>
        <time>2023-11-05T17:14:35Z</time>
      </trkpt>
      <trkpt lat="47.13134" lon="-1.36558">
        <ele>39</ele>
        <time>2023-11-05T17:15:03Z</time>
      </trkpt>
      <trkpt lat="47.13157" lon="-1.36546">
        <ele>39</ele>
        <time>2023-11-05T17:15:36Z</time>
      </trkpt>
      <trkpt lat="47.13142" lon="-1.36636">
        <ele>41</ele>
        <time>2023-11-05T17:17:00Z</time>
      </trkpt>
      <trkpt lat="47.13152" lon="-1.36684">
        <ele>42</ele>
        <time>2023-11-05T17:17:45Z</time>
      </trkpt>
      <trkpt lat="47.13353" lon="-1.36495">
        <ele>38</ele>
        <time>2023-11-05T17:23:04Z</time>
      </trkpt>
      <trkpt lat="47.13434" lon="-1.36654">
        <ele>43</ele>
        <time>2023-11-05T17:26:04Z</time>
      </trkpt>
      <trkpt lat="47.1348" lon="-1.3687">
        <ele>42</ele>
        <time>2023-11-05T17:29:30Z</time>
      </trkpt>
      <trkpt lat="47.13537" lon="-1.36878">
        <ele>41</ele>
        <time>2023-11-05T17:30:46Z</time>
      </trkpt>
      <trkpt lat="47.13583" lon="-1.3685">
        <ele>41</ele>
        <time>2023-11-05T17:31:53Z</time>
      </trkpt>
      <trkpt lat="47.13513" lon="-1.36995">
        <ele>38</ele>
        <time>2023-11-05T17:34:34Z</time>
      </trkpt>
      <trkpt lat="47.1347" lon="-1.37005">
        <ele>38</ele>
        <time>2023-11-05T17:35:32Z</time>
      </trkpt>
      <trkpt lat="47.13239" lon="-1.37244">
        <ele>41</ele>
        <time>2023-11-05T17:41:49Z</time>
      </trkpt>
      <trkpt lat="47.13229" lon="-1.37264">
        <ele>41</ele>
        <time>2023-11-05T17:42:12Z</time>
      </trkpt>
      <trkpt lat="47.13228" lon="-1.373">
        <ele>39</ele>
        <time>2023-11-05T17:42:44Z</time>
      </trkpt>
      <trkpt lat="47.13172" lon="-1.37371">
        <ele>37</ele>
        <time>2023-11-05T17:44:23Z</time>
      </trkpt>
      <trkpt lat="47.13205" lon="-1.3761">
        <ele>25</ele>
        <time>2023-11-05T17:48:04Z</time>
      </trkpt>
      <trkpt lat="47.13166" lon="-1.37913">
        <ele>29</ele>
        <time>2023-11-05T17:52:44Z</time>
      </trkpt>
      <trkpt lat="47.13179" lon="-1.3811">
        <ele>30</ele>
        <time>2023-11-05T17:55:44Z</time>
      </trkpt>
      <trkpt lat="47.13137" lon="-1.38261">
        <ele>36</ele>
        <time>2023-11-05T17:58:12Z</time>
      </trkpt>
      <trkpt lat="47.13183" lon="-1.38402">
        <ele>39</ele>
        <time>2023-11-05T18:00:34Z</time>
      </trkpt>
      <trkpt lat="47.13245" lon="-1.38599">
        <ele>41</ele>
        <time>2023-11-05T18:03:51Z</time>
      </trkpt>
      <trkpt lat="47.13356" lon="-1.38775">
        <ele>38</ele>
        <time>2023-11-05T18:07:29Z</time>
      </trkpt>
      <trkpt lat="47.13538" lon="-1.39033">
        <ele>30</ele>
        <time>2023-11-05T18:13:06Z</time>
      </trkpt>
      <trkpt lat="47.1375" lon="-1.39358">
        <ele>28</ele>
        <time>2023-11-05T18:19:55Z</time>
      </trkpt>
      <trkpt lat="47.13783" lon="-1.39436">
        <ele>28</ele>
        <time>2023-11-05T18:21:19Z</time>
      </trkpt>
      <trkpt lat="47.13808" lon="-1.39502">
        <ele>27</ele>
        <time>2023-11-05T18:22:27Z</time>
      </trkpt>
      <trkpt lat="47.13804" lon="-1.39579">
        <ele>28</ele>
        <time>2023-11-05T18:23:37Z</time>
      </trkpt>
      <trkpt lat="47.13842" lon="-1.39651">
        <ele>31</ele>
        <time>2023-11-05T18:25:00Z</time>
      </trkpt>
      <trkpt lat="47.13851" lon="-1.39678">
        <ele>31</ele>
        <time>2023-11-05T18:25:27Z</time>
      </trkpt>
      <trkpt lat="47.1388" lon="-1.39698">
        <ele>32</ele>
        <time>2023-11-05T18:26:10Z</time>
      </trkpt>
      <trkpt lat="47.13899" lon="-1.39733">
        <ele>33</ele>
        <time>2023-11-05T18:26:51Z</time>
      </trkpt>
      <trkpt lat="47.13891" lon="-1.39797">
        <ele>33</ele>
        <time>2023-11-05T18:27:50Z</time>
      </trkpt>
      <trkpt lat="47.13926" lon="-1.40026">
        <ele>39</ele>
        <time>2023-11-05T18:31:23Z</time>
      </trkpt>
      <trkpt lat="47.14171" lon="-1.39894">
        <ele>32</ele>
        <time>2023-11-05T18:37:11Z</time>
      </trkpt>
      <trkpt lat="47.14208" lon="-1.39919">
        <ele>33</ele>
        <time>2023-11-05T18:38:05Z</time>
      </trkpt>
      <trkpt lat="47.14224" lon="-1.39964">
        <ele>35</ele>
        <time>2023-11-05T18:38:51Z</time>
      </trkpt>
      <trkpt lat="47.14304" lon="-1.39936">
        <ele>28</ele>
        <time>2023-11-05T18:40:41Z</time>
      </trkpt>
      <trkpt lat="47.14421" lon="-1.39994">
        <ele>33</ele>
        <time>2023-11-05T18:43:26Z</time>
      </trkpt>
      <trkpt lat="47.14495" lon="-1.39987">
        <ele>34</ele>
        <time>2023-11-05T18:45:05Z</time>
      </trkpt>
      <trkpt lat="47.14656" lon="-1.39813">
        <ele>25</ele>
        <time>2023-11-05T18:49:31Z</time>
      </trkpt>
      <trkpt lat="47.14671" lon="-1.39771">
        <ele>23</ele>
        <time>2023-11-05T18:50:15Z</time>
      </trkpt>
      <trkpt lat="47.14771" lon="-1.39735">
        <ele>16</ele>
        <time>2023-11-05T18:52:32Z</time>
      </trkpt>
      <trkpt lat="47.14805" lon="-1.39941">
        <ele>15</ele>
        <time>2023-11-05T18:55:44Z</time>
      </trkpt>
      <trkpt lat="47.14895" lon="-1.39865">
        <ele>7</ele>
        <time>2023-11-05T18:58:03Z</time>
      </trkpt>
      <trkpt lat="47.14878" lon="-1.39664">
        <ele>5</ele>
        <time>2023-11-05T19:01:07Z</time>
      </trkpt>
      <trkpt lat="47.14853" lon="-1.39612">
        <ele>6</ele>
        <time>2023-11-05T19:02:04Z</time>
      </trkpt>
      <trkpt lat="47.14802" lon="-1.39586">
        <ele>7</ele>
        <time>2023-11-05T19:03:16Z</time>
      </trkpt>
      <trkpt lat="47.14709" lon="-1.39621">
        <ele>11</ele>
        <time>2023-11-05T19:05:25Z</time>
      </trkpt>
      <trkpt lat="47.14644" lon="-1.3967">
        <ele>14</ele>
        <time>2023-11-05T19:07:02Z</time>
      </trkpt>
      <trkpt lat="47.14559" lon="-1.39843">
        <ele>20</ele>
        <time>2023-11-05T19:10:16Z</time>
      </trkpt>
      <trkpt lat="47.14502" lon="-1.39883">
        <ele>21</ele>
        <time>2023-11-05T19:11:40Z</time>
      </trkpt>
      <trkpt lat="47.14419" lon="-1.39878">
        <ele>16</ele>
        <time>2023-11-05T19:13:31Z</time>
      </trkpt>
      <trkpt lat="47.14347" lon="-1.3987">
        <ele>15</ele>
        <time>2023-11-05T19:15:07Z</time>
      </trkpt>
      <trkpt lat="47.14299" lon="-1.39829">
        <ele>11</ele>
        <time>2023-11-05T19:16:21Z</time>
      </trkpt>
      <trkpt lat="47.14275" lon="-1.39763">
        <ele>9</ele>
        <time>2023-11-05T19:17:29Z</time>
      </trkpt>
      <trkpt lat="47.14277" lon="-1.39709">
        <ele>8</ele>
        <time>2023-11-05T19:18:18Z</time>
      </trkpt>
      <trkpt lat="47.14295" lon="-1.39576">
        <ele>8</ele>
        <time>2023-11-05T19:20:21Z</time>
      </trkpt>
      <trkpt lat="47.14318" lon="-1.39427">
        <ele>9</ele>
        <time>2023-11-05T19:22:40Z</time>
      </trkpt>
      <trkpt lat="47.14316" lon="-1.3926">
        <ele>10</ele>
        <time>2023-11-05T19:25:12Z</time>
      </trkpt>
      <trkpt lat="47.14142" lon="-1.38958">
        <ele>18</ele>
        <time>2023-11-05T19:31:11Z</time>
      </trkpt>
      <trkpt lat="47.14188" lon="-1.38868">
        <ele>7</ele>
        <time>2023-11-05T19:32:53Z</time>
      </trkpt>
      <trkpt lat="47.14189" lon="-1.38808">
        <ele>6</ele>
        <time>2023-11-05T19:33:48Z</time>
      </trkpt>
      <trkpt lat="47.14154" lon="-1.38777">
        <ele>9</ele>
        <time>2023-11-05T19:34:42Z</time>
      </trkpt>
      <trkpt lat="47.14148" lon="-1.38722">
        <ele>10</ele>
        <time>2023-11-05T19:35:33Z</time>
      </trkpt>
      <trkpt lat="47.14167" lon="-1.38589">
        <ele>11</ele>
        <time>2023-11-05T19:37:36Z</time>
      </trkpt>
      <trkpt lat="47.1428" lon="-1.38505">
        <ele>8</ele>
        <time>2023-11-05T19:40:25Z</time>
      </trkpt>
      <trkpt lat="47.14369" lon="-1.38194">
        <ele>10</ele>
        <time>2023-11-05T19:45:31Z</time>
      </trkpt>
      <trkpt lat="47.14469" lon="-1.38016">
        <ele>10</ele>
        <time>2023-11-05T19:49:01Z</time>
      </trkpt>
      <trkpt lat="47.14347" lon="-1.37494">
        <ele>8</ele>
        <time>2023-11-05T19:57:22Z</time>
      </trkpt>
      <trkpt lat="47.14316" lon="-1.37385">
        <ele>10</ele>
        <time>2023-11-05T19:59:09Z</time>
      </trkpt>
      <trkpt lat="47.14224" lon="-1.37282">
        <ele>10</ele>
        <time>2023-11-05T20:01:43Z</time>
      </trkpt>
      <trkpt lat="47.14042" lon="-1.37293">
        <ele>15</ele>
        <time>2023-11-05T20:05:46Z</time>
      </trkpt>
      <trkpt lat="47.13958" lon="-1.37234">
        <ele>16</ele>
        <time>2023-11-05T20:07:51Z</time>
      </trkpt>
      <trkpt lat="47.13959" lon="-1.37215">
        <ele>16</ele>
        <time>2023-11-05T20:08:08Z</time>
      </trkpt>
      <trkpt lat="47.13958" lon="-1.37191">
        <ele>15</ele>
        <time>2023-11-05T20:08:30Z</time>
      </trkpt>
      <trkpt lat="47.13944" lon="-1.37133">
        <ele>14</ele>
        <time>2023-11-05T20:09:26Z</time>
      </trkpt>
      <trkpt lat="47.13872" lon="-1.36992">
        <ele>18</ele>
        <time>2023-11-05T20:12:06Z</time>
      </trkpt>
      <trkpt lat="47.13845" lon="-1.36917">
        <ele>19</ele>
        <time>2023-11-05T20:13:23Z</time>
      </trkpt>
      <trkpt lat="47.1381" lon="-1.36853">
        <ele>19</ele>
        <time>2023-11-05T20:14:37Z</time>
      </trkpt>
      <trkpt lat="47.13762" lon="-1.36793">
        <ele>22</ele>
        <time>2023-11-05T20:16:01Z</time>
      </trkpt>
      <trkpt lat="47.13701" lon="-1.36745">
        <ele>25</ele>
        <time>2023-11-05T20:17:34Z</time>
      </trkpt>
      <trkpt lat="47.13689" lon="-1.36716">
        <ele>23</ele>
        <time>2023-11-05T20:18:04Z</time>
      </trkpt>
      <trkpt lat="47.13649" lon="-1.36662">
        <ele>21</ele>
        <time>2023-11-05T20:19:17Z</time>
      </trkpt>
      <trkpt lat="47.13627" lon="-1.36615">
        <ele>20</ele>
        <time>2023-11-05T20:20:09Z</time>
      </trkpt>
      <trkpt lat="47.13606" lon="-1.36555">
        <ele>19</ele>
        <time>2023-11-05T20:21:10Z</time>
      </trkpt>
      <trkpt lat="47.13595" lon="-1.36495">
        <ele>17</ele>
        <time>2023-11-05T20:22:06Z</time>
      </trkpt>
      <trkpt lat="47.13608" lon="-1.36488">
        <ele>15</ele>
        <time>2023-11-05T20:22:25Z</time>
      </trkpt>
      <trkpt lat="47.13613" lon="-1.36464">
        <ele>13</ele>
        <time>2023-11-05T20:22:48Z</time>
      </trkpt>
      <trkpt lat="47.13619" lon="-1.36447">
        <ele>12</ele>
        <time>2023-11-05T20:23:05Z</time>
      </trkpt>
      <trkpt lat="47.13613" lon="-1.36401">
        <ele>11</ele>
        <time>2023-11-05T20:23:48Z</time>
      </trkpt>
      <trkpt lat="47.13592" lon="-1.36258">
        <ele>10</ele>
        <time>2023-11-05T20:26:00Z</time>
      </trkpt>
      <trkpt lat="47.13595" lon="-1.36106">
        <ele>12</ele>
        <time>2023-11-05T20:28:18Z</time>
      </trkpt>
      <trkpt lat="47.1358" lon="-1.36057">
        <ele>13</ele>
        <time>2023-11-05T20:29:07Z</time>
      </trkpt>
      <trkpt lat="47.13519" lon="-1.3598">
        <ele>14</ele>
        <time>2023-11-05T20:30:54Z</time>
      </trkpt>
      <trkpt lat="47.1351" lon="-1.35942">
        <ele>13</ele>
        <time>2023-11-05T20:31:31Z</time>
      </trkpt>
      <trkpt lat="47.13556" lon="-1.35823">
        <ele>14</ele>
        <time>2023-11-05T20:33:35Z</time>
      </trkpt>
      <trkpt lat="47.13593" lon="-1.35826">
        <ele>13</ele>
        <time>2023-11-05T20:34:25Z</time>
      </trkpt>
      <trkpt lat="47.137" lon="-1.35877">
        <ele>11</ele>
        <time>2023-11-05T20:36:55Z</time>
      </trkpt>
      <trkpt lat="47.13715" lon="-1.35862">
        <ele>11</ele>
        <time>2023-11-05T20:37:19Z</time>
      </trkpt>
      <trkpt lat="47.13718" lon="-1.35798">
        <ele>12</ele>
        <time>2023-11-05T20:38:17Z</time>
      </trkpt>
      <trkpt lat="47.13683" lon="-1.35621">
        <ele>14</ele>
        <time>2023-11-05T20:41:05Z</time>
      </trkpt>
      <trkpt lat="47.13669" lon="-1.35554">
        <ele>15</ele>
        <time>2023-11-05T20:42:08Z</time>
      </trkpt>
      <trkpt lat="47.13663" lon="-1.35504">
        <ele>16</ele>
        <time>2023-11-05T20:42:54Z</time>
      </trkpt>
      <trkpt lat="47.13548" lon="-1.35542">
        <ele>18</ele>
        <time>2023-11-05T20:45:32Z</time>
      </trkpt>
      <trkpt lat="47.13431" lon="-1.35566">
        <ele>20</ele>
        <time>2023-11-05T20:48:09Z</time>
      </trkpt>
      <trkpt lat="47.13347" lon="-1.35619">
        <ele>22</ele>
        <time>2023-11-05T20:50:11Z</time>
      </trkpt>
      <trkpt lat="47.13314" lon="-1.35571">
        <ele>24</ele>
        <time>2023-11-05T20:51:13Z</time>
      </trkpt>
      <trkpt lat="47.13238" lon="-1.35574">
        <ele>27</ele>
        <time>2023-11-05T20:52:55Z</time>
      </trkpt>
      <trkpt lat="47.13225" lon="-1.35567">
        <ele>28</ele>
        <time>2023-11-05T20:53:13Z</time>
      </trkpt>
      <trkpt lat="47.13216" lon="-1.35562">
        <ele>28</ele>
        <time>2023-11-05T20:53:26Z</time>
      </trkpt>
      <trkpt lat="47.13165" lon="-1.35553">
        <ele>31</ele>
        <time>2023-11-05T20:54:34Z</time>
      </trkpt>
      <trkpt lat="47.13179" lon="-1.35508">
        <ele>31</ele>
        <time>2023-11-05T20:55:19Z</time>
      </trkpt>
      <trkpt lat="47.13181" lon="-1.35473">
        <ele>31</ele>
        <time>2023-11-05T20:55:51Z</time>
      </trkpt>
    </trkseg>
  </trk>
</gpx>